createdAt,value
2022-10-10T00:02:18.671Z,69.89
2022-10-10T00:04:44.958Z,69.82
2022-10-10T00:07:11.257Z,70.05
2022-10-10T00:09:37.542Z,69.36
2022-10-10T00:12:03.933Z,69.43
2022-10-10T00:14:32.468Z,69.97
2022-10-10T00:16:58.995Z,70.23
2022-10-10T00:19:25.297Z,69.67
2022-10-10T00:21:51.614Z,69.07
2022-10-10T00:24:17.893Z,68.92
2022-10-10T00:26:44.175Z,69.55
2022-10-10T00:29:10.485Z,70.13
2022-10-10T00:31:36.813Z,70.21
2022-10-10T00:34:03.238Z,69.38
2022-10-10T00:36:29.526Z,69.32
2022-10-10T00:38:55.867Z,69.47
2022-10-10T00:41:22.264Z,69.67
2022-10-10T00:44:15.182Z,69.48
2022-10-10T00:46:42.158Z,69.94
2022-10-10T00:49:16.601Z,69.48
2022-10-10T00:51:45.911Z,70.17
2022-10-10T00:54:14.426Z,69.58
2022-10-10T00:56:55.398Z,69.45
2022-10-10T00:59:22.340Z,69.71
2022-10-10T01:01:49.018Z,69.78
2022-10-10T01:04:34.194Z,69.85
2022-10-10T01:07:03.072Z,69.19
2022-10-10T01:09:29.969Z,69.42
2022-10-10T01:12:08.054Z,69.36
2022-10-10T01:14:52.611Z,69.55
2022-10-10T01:17:32.814Z,69.30
2022-10-10T01:20:35.062Z,69.41
2022-10-10T01:23:28.378Z,69.58
2022-10-10T01:26:30.284Z,69.38
2022-10-10T01:29:18.045Z,69.93
2022-10-10T01:31:48.669Z,70.47
2022-10-10T01:34:22.733Z,70.09
2022-10-10T01:36:49.005Z,69.69
2022-10-10T01:39:26.668Z,69.93
2022-10-10T01:42:06.293Z,69.96
2022-10-10T01:44:32.610Z,69.82
2022-10-10T01:46:59.284Z,70.38
2022-10-10T01:49:30.881Z,70.17
2022-10-10T01:52:11.706Z,70.64
2022-10-10T01:54:53.939Z,70.94
2022-10-10T01:57:40.516Z,70.71
2022-10-10T02:00:14.105Z,71.44
2022-10-10T02:02:46.149Z,71.20
2022-10-10T02:05:28.742Z,71.37
2022-10-10T02:08:08.828Z,71.67
2022-10-10T02:10:39.928Z,72.22
2022-10-10T02:13:10.049Z,71.74
2022-10-10T02:15:47.505Z,72.37
2022-10-10T02:18:18.717Z,72.34
2022-10-10T02:20:45.885Z,72.40
2022-10-10T02:23:16.385Z,72.40
2022-10-10T02:25:47.398Z,72.52
2022-10-10T02:28:21.064Z,72.20
2022-10-10T02:30:50.275Z,72.77
2022-10-10T02:33:22.821Z,73.32
2022-10-10T02:35:51.287Z,73.29
2022-10-10T02:38:19.614Z,73.21
2022-10-10T02:40:48.062Z,72.70
2022-10-10T02:43:15.909Z,73.16
2022-10-10T02:45:42.855Z,73.71
2022-10-10T02:48:09.404Z,73.06
2022-10-10T02:50:35.810Z,73.44
2022-10-10T02:53:02.132Z,73.41
2022-10-10T02:55:28.552Z,73.26
2022-10-10T02:57:54.873Z,74.13
2022-10-10T03:00:21.217Z,74.12
2022-10-10T03:02:47.648Z,73.97
2022-10-10T03:05:14.089Z,74.86
2022-10-10T03:07:40.440Z,74.42
2022-10-10T03:10:07.462Z,74.83
2022-10-10T03:12:35.221Z,74.82
2022-10-10T03:15:01.763Z,75.08
2022-10-10T03:17:28.150Z,75.02
2022-10-10T03:19:54.458Z,75.32
2022-10-10T03:22:20.731Z,74.93
2022-10-10T03:24:47.048Z,74.62
2022-10-10T03:27:13.399Z,75.07
2022-10-10T03:29:39.739Z,75.18
2022-10-10T03:32:10.199Z,74.79
2022-10-10T03:34:37.273Z,75.80
2022-10-10T03:37:03.597Z,75.32
2022-10-10T03:39:30.026Z,75.73
2022-10-10T03:41:56.386Z,75.96
2022-10-10T03:44:22.660Z,75.29
2022-10-10T03:46:48.944Z,75.99
2022-10-10T03:49:15.589Z,76.05
2022-10-10T03:51:41.982Z,76.47
2022-10-10T03:54:08.403Z,76.29
2022-10-10T03:56:34.690Z,76.47
2022-10-10T03:59:03.630Z,76.29
2022-10-10T04:01:30.420Z,76.21
2022-10-10T04:03:56.810Z,76.95
2022-10-10T04:06:23.190Z,76.94
2022-10-10T04:08:49.456Z,77.02
2022-10-10T04:11:15.785Z,76.70
2022-10-10T04:13:42.072Z,76.23
2022-10-10T04:16:08.476Z,76.56
2022-10-10T04:18:34.759Z,77.21
2022-10-10T04:21:05.498Z,77.02
2022-10-10T04:23:31.910Z,76.95
2022-10-10T04:25:58.272Z,77.26
2022-10-10T04:28:24.715Z,77.47
2022-10-10T04:30:51.090Z,77.17
2022-10-10T04:33:17.462Z,77.19
2022-10-10T04:35:43.785Z,77.38
2022-10-10T04:38:10.133Z,77.16
2022-10-10T04:40:37.635Z,77.68
2022-10-10T04:43:04.013Z,77.84
2022-10-10T04:45:32.907Z,78.09
2022-10-10T04:48:02.920Z,77.77
2022-10-10T04:50:29.330Z,77.59
2022-10-10T04:52:55.630Z,78.09
2022-10-10T04:55:21.925Z,77.91
2022-10-10T04:57:48.310Z,78.30
2022-10-10T05:00:14.825Z,78.46
2022-10-10T05:02:41.153Z,78.12
2022-10-10T05:05:07.953Z,78.29
2022-10-10T05:07:34.308Z,78.77
2022-10-10T05:10:00.639Z,78.77
2022-10-10T05:12:26.932Z,79.02
2022-10-10T05:14:53.254Z,78.63
2022-10-10T05:17:19.606Z,78.47
2022-10-10T05:19:45.970Z,78.26
2022-10-10T05:22:12.260Z,79.01
2022-10-10T05:24:38.913Z,78.72
2022-10-10T05:27:05.195Z,78.80
2022-10-10T05:29:31.501Z,79.15
2022-10-10T05:31:57.831Z,79.50
2022-10-10T05:34:24.136Z,79.42
2022-10-10T05:36:50.589Z,79.21
2022-10-10T05:39:16.918Z,79.14
2022-10-10T05:41:43.397Z,79.49
2022-10-10T05:44:10.038Z,79.18
2022-10-10T05:46:36.324Z,79.67
2022-10-10T05:49:02.677Z,79.60
2022-10-10T05:51:28.989Z,79.60
2022-10-10T05:53:56.457Z,79.67
2022-10-10T05:56:23.647Z,79.28
2022-10-10T05:58:51.318Z,79.88
2022-10-10T06:01:17.964Z,79.19
2022-10-10T06:03:44.313Z,79.52
2022-10-10T06:06:10.843Z,79.49
2022-10-10T06:08:37.172Z,79.83
2022-10-10T06:11:07.943Z,79.97
2022-10-10T06:13:34.403Z,79.96
2022-10-10T06:16:00.802Z,79.73
2022-10-10T06:18:27.222Z,79.85
2022-10-10T06:20:53.746Z,79.85
2022-10-10T06:23:20.603Z,79.56
2022-10-10T06:25:47.143Z,79.84
2022-10-10T06:28:13.478Z,79.71
2022-10-10T06:30:41.635Z,79.65
2022-10-10T06:33:07.980Z,79.62
2022-10-10T06:35:38.069Z,80.01
2022-10-10T06:38:04.398Z,79.71
2022-10-10T06:40:30.764Z,79.38
2022-10-10T06:42:57.128Z,79.60
2022-10-10T06:45:24.971Z,78.80
2022-10-10T06:47:51.282Z,78.57
2022-10-10T06:50:17.818Z,79.24
2022-10-10T06:52:44.113Z,79.39
2022-10-10T06:55:10.489Z,78.45
2022-10-10T06:57:36.829Z,78.27
2022-10-10T07:00:05.589Z,78.96
2022-10-10T07:02:31.883Z,78.53
2022-10-10T07:04:58.257Z,79.03
2022-10-10T07:07:24.670Z,78.69
2022-10-10T07:09:51.052Z,78.05
2022-10-10T07:12:17.622Z,78.85
2022-10-10T07:14:43.958Z,78.65
2022-10-10T07:17:10.237Z,78.75
2022-10-10T07:19:37.642Z,77.88
2022-10-10T07:22:03.952Z,76.71
2022-10-10T07:24:30.246Z,77.01
2022-10-10T07:27:03.507Z,76.93
2022-10-10T07:29:31.550Z,76.86
2022-10-10T07:31:58.194Z,75.66
2022-10-10T07:34:24.769Z,75.70
2022-10-10T07:36:51.253Z,76.30
2022-10-10T07:39:21.902Z,76.41
2022-10-10T07:41:49.532Z,76.11
2022-10-10T07:44:16.679Z,75.46
2022-10-10T07:46:42.998Z,75.60
2022-10-10T07:49:09.602Z,74.65
2022-10-10T07:51:36.883Z,75.13
2022-10-10T07:54:03.898Z,75.34
2022-10-10T07:56:30.289Z,74.66
2022-10-10T07:58:56.865Z,74.81
2022-10-10T08:01:24.044Z,74.17
2022-10-10T08:03:50.432Z,74.75
2022-10-10T08:06:17.959Z,75.46
2022-10-10T08:08:51.393Z,75.15
2022-10-10T08:11:20.677Z,74.13
2022-10-10T08:13:47.047Z,73.69
2022-10-10T08:16:13.746Z,73.80
2022-10-10T08:18:40.158Z,72.44
2022-10-10T08:21:12.036Z,73.30
2022-10-10T08:23:38.479Z,72.82
2022-10-10T08:26:08.187Z,72.55
2022-10-10T08:28:35.414Z,72.34
2022-10-10T08:31:10.546Z,72.96
2022-10-10T08:33:37.399Z,71.04
2022-10-10T08:36:08.462Z,71.25
2022-10-10T08:38:35.430Z,71.02
2022-10-10T08:41:27.137Z,70.55
2022-10-10T08:44:04.507Z,70.72
2022-10-10T08:46:37.668Z,71.05
2022-10-10T08:49:19.525Z,70.40
2022-10-10T08:51:51.514Z,69.27
2022-10-10T08:54:19.472Z,69.82
2022-10-10T08:56:46.423Z,68.17
2022-10-10T08:59:20.755Z,68.00
2022-10-10T09:02:17.590Z,67.20
2022-10-10T09:04:36.434Z,66.59
2022-10-10T09:07:15.023Z,65.41
2022-10-10T09:09:50.685Z,64.44
2022-10-10T09:12:31.197Z,63.43
2022-10-10T09:15:24.011Z,61.45
2022-10-10T09:18:01.173Z,61.09
2022-10-10T09:20:45.622Z,58.51
2022-10-10T09:23:27.615Z,57.20
2022-10-10T09:26:11.326Z,55.84
2022-10-10T09:28:50.551Z,55.17
2022-10-10T09:31:28.253Z,54.37
2022-10-10T09:34:04.070Z,51.63
2022-10-10T09:36:34.115Z,51.54
2022-10-10T09:39:06.544Z,49.21
2022-10-10T09:41:40.950Z,48.71
2022-10-10T09:44:11.394Z,46.42
2022-10-10T09:46:38.433Z,45.60
2022-10-10T09:49:04.970Z,46.03
2022-10-10T09:51:32.713Z,45.97
2022-10-10T09:53:59.349Z,45.55
2022-10-10T09:56:30.401Z,45.43
2022-10-10T09:58:57.757Z,43.67
2022-10-10T10:01:26.945Z,44.64
2022-10-10T10:04:27.607Z,44.57
2022-10-10T10:07:15.781Z,45.36
2022-10-10T10:09:47.897Z,45.03
2022-10-10T10:12:27.919Z,45.26
2022-10-10T10:15:00.848Z,45.37
2022-10-10T10:17:27.892Z,41.64
2022-10-10T10:19:54.490Z,41.06
2022-10-10T10:22:31.265Z,40.02
2022-10-10T10:24:58.404Z,40.48
2022-10-10T10:27:27.378Z,39.64
2022-10-10T10:29:58.732Z,41.93
2022-10-10T10:32:44.169Z,40.69
2022-10-10T10:35:36.924Z,40.73
2022-10-10T10:38:21.417Z,41.27
2022-10-10T10:40:57.656Z,41.33
2022-10-10T10:44:11.819Z,41.73
2022-10-10T10:46:44.873Z,42.14
2022-10-10T10:49:35.584Z,41.70
2022-10-10T10:52:27.109Z,41.30
2022-10-10T10:55:22.610Z,39.05
2022-10-10T10:58:22.455Z,39.33
2022-10-10T11:01:22.598Z,41.23
2022-10-10T11:05:18.551Z,38.28
2022-10-10T11:07:18.393Z,39.48
2022-10-10T11:09:56.666Z,37.98
2022-10-10T11:12:48.480Z,39.13
2022-10-10T11:15:21.030Z,39.41
2022-10-10T11:17:54.864Z,40.08
2022-10-10T11:20:30.330Z,39.75
2022-10-10T11:23:09.006Z,40.39
2022-10-10T11:25:44.447Z,42.52
2022-10-10T11:28:16.375Z,41.39
2022-10-10T11:30:50.461Z,41.65
2022-10-10T11:33:34.632Z,41.26
2022-10-10T11:36:20.128Z,42.78
2022-10-10T11:39:15.544Z,43.40
2022-10-10T11:42:03.361Z,45.91
2022-10-10T11:44:51.185Z,45.71
2022-10-10T11:47:42.297Z,42.69
2022-10-10T11:50:18.543Z,45.12
2022-10-10T11:53:21.594Z,46.79
2022-10-10T11:56:07.614Z,45.15
2022-10-10T11:58:41.411Z,47.08
2022-10-10T12:01:25.276Z,45.40
2022-10-10T12:03:52.350Z,44.27
2022-10-10T12:06:25.418Z,43.24
2022-10-10T12:09:00.672Z,43.70
2022-10-10T12:11:42.165Z,44.51
2022-10-10T12:14:13.460Z,44.64
2022-10-10T12:16:39.882Z,44.46
2022-10-10T12:19:18.960Z,45.44
2022-10-10T12:21:59.232Z,48.47
2022-10-10T12:24:33.919Z,47.28
2022-10-10T12:27:00.190Z,46.48
2022-10-10T12:29:50.083Z,48.21
2022-10-10T12:32:20.111Z,48.18
2022-10-10T12:34:49.452Z,46.47
2022-10-10T12:37:30.840Z,48.99
2022-10-10T12:40:06.038Z,47.96
2022-10-10T12:42:59.268Z,48.19
2022-10-10T12:45:31.313Z,47.93
2022-10-10T12:48:05.488Z,46.71
2022-10-10T12:50:36.977Z,46.61
2022-10-10T12:53:24.659Z,47.00
2022-10-10T12:55:55.756Z,46.35
2022-10-10T12:58:35.157Z,45.46
2022-10-10T13:01:18.493Z,47.82
2022-10-10T13:03:47.650Z,48.04
2022-10-10T13:06:35.758Z,47.93
2022-10-10T13:09:07.329Z,48.09
2022-10-10T13:11:49.428Z,46.26
2022-10-10T13:14:16.200Z,45.76
2022-10-10T13:16:44.430Z,44.93
2022-10-10T13:19:30.987Z,46.80
2022-10-10T13:21:57.353Z,45.36
2022-10-10T13:24:31.581Z,47.18
2022-10-10T13:26:58.404Z,44.20
2022-10-10T13:29:30.216Z,47.15
2022-10-10T13:32:16.927Z,45.97
2022-10-10T13:34:48.525Z,44.84
2022-10-10T13:37:18.601Z,45.46
2022-10-10T13:39:45.421Z,44.60
2022-10-10T13:42:33.938Z,46.53
2022-10-10T13:45:02.931Z,43.65
2022-10-10T13:47:52.563Z,43.33
2022-10-10T13:50:22.903Z,44.93
2022-10-10T13:52:49.476Z,46.93
2022-10-10T13:55:27.017Z,43.68
2022-10-10T13:57:58.230Z,43.23
2022-10-10T14:00:30.384Z,41.81
2022-10-10T14:02:56.724Z,42.38
2022-10-10T14:05:30.768Z,44.81
2022-10-10T14:07:58.729Z,44.38
2022-10-10T14:10:28.433Z,44.42
2022-10-10T14:13:02.225Z,44.76
2022-10-10T14:15:41.285Z,45.97
2022-10-10T14:18:22.190Z,46.23
2022-10-10T14:20:49.372Z,47.16
2022-10-10T14:23:16.342Z,47.34
2022-10-10T14:25:44.924Z,48.19
2022-10-10T14:28:31.645Z,48.40
2022-10-10T14:30:58.562Z,50.84
2022-10-10T14:33:26.460Z,49.92
2022-10-10T14:35:54.486Z,48.07
2022-10-10T14:38:20.919Z,47.56
2022-10-10T14:40:49.412Z,49.17
2022-10-10T14:43:16.857Z,46.83
2022-10-10T14:45:44.337Z,48.43
2022-10-10T14:48:11.761Z,50.36
2022-10-10T14:50:41.772Z,48.03
2022-10-10T14:53:08.056Z,48.43
2022-10-10T14:55:34.382Z,47.37
2022-10-10T14:58:00.797Z,46.83
2022-10-10T15:00:28.447Z,46.99
2022-10-10T15:02:55.169Z,47.46
2022-10-10T15:05:21.718Z,47.03
2022-10-10T15:07:50.364Z,47.09
2022-10-10T15:10:33.290Z,47.92
2022-10-10T15:13:00.918Z,48.06
2022-10-10T15:15:27.225Z,47.64
2022-10-10T15:17:53.513Z,48.56
2022-10-10T15:20:20.633Z,48.78
2022-10-10T15:22:47.008Z,49.65
2022-10-10T15:25:13.324Z,49.91
2022-10-10T15:27:39.689Z,50.06
2022-10-10T15:30:07.496Z,50.39
2022-10-10T15:32:36.836Z,50.73
2022-10-10T15:35:03.305Z,51.71
2022-10-10T15:37:29.641Z,52.10
2022-10-10T15:39:55.999Z,53.90
2022-10-10T15:42:23.346Z,54.64
2022-10-10T15:44:50.532Z,55.91
2022-10-10T15:47:18.076Z,56.96
2022-10-10T15:49:44.681Z,56.57
2022-10-10T15:52:11.231Z,56.75
2022-10-10T15:54:37.699Z,57.03
2022-10-10T15:57:04.171Z,56.83
2022-10-10T15:59:30.631Z,57.55
2022-10-10T16:01:57.096Z,57.65
2022-10-10T16:04:25.128Z,58.08
2022-10-10T16:06:54.488Z,57.91
2022-10-10T16:09:33.230Z,57.67
2022-10-10T16:12:00.789Z,57.53
2022-10-10T16:14:28.055Z,57.33
2022-10-10T16:16:54.663Z,57.27
2022-10-10T16:19:20.923Z,57.59
2022-10-10T16:21:47.277Z,57.20
2022-10-10T16:24:13.767Z,57.32
2022-10-10T16:26:40.594Z,57.48
2022-10-10T16:29:08.632Z,57.20
2022-10-10T16:31:36.466Z,57.95
2022-10-10T16:34:02.834Z,57.83
2022-10-10T16:36:31.989Z,58.17
2022-10-10T16:38:59.101Z,58.18
2022-10-10T16:41:47.004Z,58.69
2022-10-10T16:44:14.185Z,58.45
2022-10-10T16:46:40.528Z,58.81
2022-10-10T16:49:07.217Z,58.73
2022-10-10T16:51:33.706Z,58.94
2022-10-10T16:54:01.778Z,59.12
2022-10-10T16:56:28.307Z,59.18
2022-10-10T16:58:54.658Z,59.47
2022-10-10T17:01:23.313Z,59.37
2022-10-10T17:03:51.585Z,59.97
2022-10-10T17:06:20.617Z,59.59
2022-10-10T17:08:48.485Z,59.79
2022-10-10T17:11:15.240Z,59.68
2022-10-10T17:13:42.160Z,60.00
2022-10-10T17:16:45.021Z,59.75
2022-10-10T17:19:00.312Z,60.22
2022-10-10T17:21:26.597Z,60.33
2022-10-10T17:23:53.009Z,60.05
2022-10-10T17:26:22.501Z,60.49
2022-10-10T17:28:56.471Z,60.73
2022-10-10T17:31:24.072Z,60.30
2022-10-10T17:33:53.940Z,60.83
2022-10-10T17:36:23.090Z,60.63
2022-10-10T17:38:49.427Z,61.33
2022-10-10T17:41:17.069Z,61.30
2022-10-10T17:43:44.221Z,61.46
2022-10-10T17:46:42.495Z,61.93
2022-10-10T17:49:08.644Z,62.81
2022-10-10T17:51:36.635Z,63.47
2022-10-10T17:54:04.535Z,63.88
2022-10-10T17:56:31.468Z,64.57
2022-10-10T17:59:00.553Z,65.13
2022-10-10T18:01:27.544Z,66.09
2022-10-10T18:03:54.021Z,66.39
2022-10-10T18:06:22.164Z,67.03
2022-10-10T18:08:53.454Z,67.05
2022-10-10T18:11:22.239Z,67.40
2022-10-10T18:13:52.476Z,67.99
2022-10-10T18:16:26.737Z,68.31
2022-10-10T18:18:53.240Z,69.02
2022-10-10T18:21:22.114Z,69.25
2022-10-10T18:23:48.905Z,69.92
2022-10-10T18:26:25.978Z,70.02
2022-10-10T18:28:55.474Z,70.42
2022-10-10T18:31:27.657Z,70.15
2022-10-10T18:33:54.078Z,70.48
2022-10-10T18:36:23.737Z,70.24
2022-10-10T18:38:50.162Z,70.67
2022-10-10T18:41:18.024Z,70.85
2022-10-10T18:43:45.185Z,71.37
2022-10-10T18:46:15.236Z,71.69
2022-10-10T18:48:42.472Z,72.14
2022-10-10T18:51:15.439Z,72.31
2022-10-10T18:53:43.816Z,72.75
2022-10-10T18:56:12.777Z,73.23
2022-10-10T18:58:39.915Z,73.88
2022-10-10T19:01:12.018Z,73.43
2022-10-10T19:03:39.294Z,72.60
2022-10-10T19:06:08.170Z,70.47
2022-10-10T19:08:34.963Z,70.22
2022-10-10T19:11:02.525Z,70.54
2022-10-10T19:13:30.104Z,70.61
2022-10-10T19:15:56.673Z,70.19
2022-10-10T19:18:23.133Z,69.95
2022-10-10T19:20:49.672Z,69.82
2022-10-10T19:23:16.023Z,70.30
2022-10-10T19:25:44.295Z,72.27
2022-10-10T19:28:10.814Z,74.05
2022-10-10T19:30:39.225Z,74.24
2022-10-10T19:33:05.776Z,73.97
2022-10-10T19:35:36.612Z,73.52
2022-10-10T19:38:04.813Z,72.99
2022-10-10T19:40:31.311Z,71.85
2022-10-10T19:42:57.585Z,70.63
2022-10-10T19:45:24.197Z,70.37
2022-10-10T19:47:50.686Z,69.71
2022-10-10T19:50:17.109Z,68.84
2022-10-10T19:52:43.639Z,67.82
2022-10-10T19:55:10.673Z,67.71
2022-10-10T19:57:37.161Z,67.57
2022-10-10T20:00:05.623Z,67.78
2022-10-10T20:02:32.380Z,67.45
2022-10-10T20:04:58.915Z,67.82
2022-10-10T20:07:25.301Z,68.30
2022-10-10T20:09:51.639Z,68.53
2022-10-10T20:12:17.960Z,68.07
2022-10-10T20:14:44.387Z,67.91
2022-10-10T20:17:10.757Z,67.58
2022-10-10T20:19:37.078Z,67.42
2022-10-10T20:22:03.982Z,67.12
2022-10-10T20:24:30.329Z,67.35
2022-10-10T20:26:56.721Z,67.86
2022-10-10T20:29:23.013Z,66.94
2022-10-10T20:31:49.309Z,67.33
2022-10-10T20:34:15.647Z,67.61
2022-10-10T20:36:41.949Z,67.69
2022-10-10T20:39:11.868Z,67.61
2022-10-10T20:41:39.905Z,67.96
2022-10-10T20:44:08.694Z,68.07
2022-10-10T20:46:37.153Z,68.42
2022-10-10T20:49:06.504Z,68.61
2022-10-10T20:51:33.139Z,69.08
2022-10-10T20:54:02.385Z,69.43
2022-10-10T20:56:30.211Z,69.54
2022-10-10T20:58:56.830Z,69.92
2022-10-10T21:01:25.575Z,69.79
2022-10-10T21:03:51.930Z,69.63
2022-10-10T21:06:22.820Z,69.98
2022-10-10T21:08:49.856Z,69.69
2022-10-10T21:11:17.374Z,69.87
2022-10-10T21:13:46.153Z,69.54
2022-10-10T21:16:15.100Z,69.77
2022-10-10T21:18:44.547Z,69.94
2022-10-10T21:21:16.357Z,70.37
2022-10-10T21:23:45.465Z,70.58
2022-10-10T21:26:14.754Z,70.79
2022-10-10T21:28:41.597Z,70.94
2022-10-10T21:31:15.872Z,71.01
2022-10-10T21:33:43.331Z,71.48
2022-10-10T21:36:10.478Z,72.00
2022-10-10T21:38:37.862Z,72.88
2022-10-10T21:41:06.801Z,73.05
2022-10-10T21:43:34.569Z,74.02
2022-10-10T21:46:10.329Z,74.85
2022-10-10T21:48:36.651Z,75.38
2022-10-10T21:51:03.018Z,75.62
2022-10-10T21:53:29.710Z,75.69
2022-10-10T21:55:56.453Z,76.31
2022-10-10T21:58:23.695Z,76.54
2022-10-10T22:00:50.296Z,76.98
2022-10-10T22:03:16.641Z,77.27
2022-10-10T22:05:44.640Z,77.43
2022-10-10T22:08:11.477Z,78.10
2022-10-10T22:10:40.902Z,77.83
2022-10-10T22:13:07.541Z,77.84
2022-10-10T22:15:34.021Z,78.32
2022-10-10T22:18:00.348Z,78.34
2022-10-10T22:20:26.637Z,78.34
2022-10-10T22:22:53.023Z,77.34
2022-10-10T22:25:19.414Z,77.54
2022-10-10T22:27:45.762Z,77.04
2022-10-10T22:30:13.552Z,77.61
2022-10-10T22:32:40.316Z,77.45
2022-10-10T22:35:06.934Z,77.43
2022-10-10T22:37:33.321Z,77.27
2022-10-10T22:39:59.632Z,77.31
2022-10-10T22:42:25.957Z,77.77
2022-10-10T22:44:52.248Z,77.54
2022-10-10T22:47:18.708Z,77.76
2022-10-10T22:49:44.997Z,78.60
2022-10-10T22:52:11.628Z,78.62
2022-10-10T22:54:37.926Z,77.93
2022-10-10T22:57:04.269Z,77.80
2022-10-10T22:59:30.598Z,77.57
2022-10-10T23:01:56.917Z,77.79
2022-10-10T23:04:23.522Z,77.29
2022-10-10T23:06:50.346Z,77.81
2022-10-10T23:09:17.741Z,77.52
2022-10-10T23:11:44.076Z,78.02
2022-10-10T23:14:10.388Z,78.03
2022-10-10T23:16:40.511Z,78.07
2022-10-10T23:19:07.365Z,78.05
2022-10-10T23:21:33.641Z,78.39
2022-10-10T23:23:59.935Z,78.49
2022-10-10T23:26:26.231Z,78.37
2022-10-10T23:28:52.601Z,79.16
2022-10-10T23:31:18.993Z,79.35
2022-10-10T23:33:45.324Z,78.74
2022-10-10T23:36:13.911Z,78.59
2022-10-10T23:38:41.358Z,78.73
2022-10-10T23:41:09.039Z,79.35
2022-10-10T23:43:35.553Z,79.31
2022-10-10T23:46:02.246Z,79.33
2022-10-10T23:48:28.933Z,79.83
2022-10-10T23:50:55.276Z,79.63
2022-10-10T23:53:22.024Z,80.40
2022-10-10T23:55:48.537Z,80.49
2022-10-10T23:58:15.709Z,80.11
